Time;durP1;ratioP1;P1;durP2;ratioP2;P2;SDS_P1;SDS_P2;PMS_P1;PMS_P2;Temp;Humidity;BMP_temperature;BMP_pressure;BME280_temperature;BME280_humidity;BME280_pressure;Samples;Min_cycle;Max_cycle;Signal;HPM_P1;HPM_P2
2021/04/02 00:01:05;;;;;;;14.27;8.20;;;435.60;1280.00;;;;;;5035760;28;20415;-58
2021/04/02 00:03:33;;;;;;;12.18;8.25;;;435.60;1280.00;;;;;;5034301;28;20037;-68
2021/04/02 00:06:02;;;;;;;14.52;7.70;;;435.60;1280.00;;;;;;5033182;28;20028;-59
2021/04/02 00:08:28;;;;;;;14.00;8.60;;;435.50;1305.60;;;;;;5035934;28;20034;-60
2021/04/02 00:10:59;;;;;;;11.63;8.25;;;435.60;1305.60;;;;;;5035602;28;20106;-61
2021/04/02 00:13:29;;;;;;;12.23;8.18;;;435.60;1305.60;;;;;;5029428;28;20050;-58
2021/04/02 00:15:56;;;;;;;14.02;6.80;;;435.60;1331.20;;;;;;5022077;28;20109;-62
2021/04/02 00:18:25;;;;;;;12.82;6.60;;;435.50;1331.20;;;;;;5015640;28;20025;-61
2021/04/02 00:20:52;;;;;;;11.73;6.80;;;435.50;1356.80;;;;;;5015661;28;20101;-65
2021/04/02 00:23:22;;;;;;;13.40;6.60;;;435.50;1356.80;;;;;;5015727;28;20037;-60
2021/04/02 00:25:49;;;;;;;11.30;5.97;;;435.60;1382.40;;;;;;5015520;28;20113;-62
2021/04/02 00:28:14;;;;;;;8.73;5.05;;;435.60;1433.60;;;;;;5015315;28;20464;-59
2021/04/02 00:30:44;;;;;;;7.68;3.88;;;435.70;1484.80;;;;;;5014807;28;20052;-59
2021/04/02 00:33:11;;;;;;;5.13;2.72;;;435.60;1484.80;;;;;;5015541;28;20105;-63
2021/04/02 00:35:38;;;;;;;9.80;3.10;;;435.70;1484.80;;;;;;5015866;28;20049;-61
2021/04/02 00:38:05;;;;;;;6.15;3.00;;;435.70;1510.40;;;;;;5015568;28;20113;-62
2021/04/02 00:40:43;;;;;;;5.30;2.53;;;435.70;1510.40;;;;;;5033507;28;20045;-65
2021/04/02 00:43:10;;;;;;;5.55;2.47;;;435.80;1510.40;;;;;;5025463;28;20068;-63
2021/04/02 00:45:36;;;;;;;6.55;2.70;;;435.80;1536.00;;;;;;5033537;28;20013;-59
2021/04/02 00:48:04;;;;;;;8.75;2.53;;;435.70;1587.20;;;;;;5041278;28;20025;-61
2021/04/02 00:50:55;;;;;;;6.50;2.72;;;435.60;1664.00;;;;;;5018547;28;20113;-60
2021/04/02 00:53:23;;;;;;;7.63;3.38;;;435.40;1792.00;;;;;;5015010;28;20026;-60
2021/04/02 00:55:50;;;;;;;7.00;3.20;;;435.20;1894.40;;;;;;5021066;28;20026;-60
2021/04/02 00:58:23;;;;;;;9.60;3.53;;;410.50;1920.00;;;;;;5015028;28;20025;-62
2021/04/02 01:00:50;;;;;;;6.15;3.33;;;410.40;1971.20;;;;;;5020901;28;20104;-59
2021/04/02 01:03:16;;;;;;;7.43;3.00;;;410.20;1996.80;;;;;;5033965;28;20037;-59
2021/04/02 01:05:45;;;;;;;6.10;2.90;;;410.10;1971.20;;;;;;5031599;28;20494;-60
2021/04/02 01:08:18;;;;;;;5.88;2.67;;;410.10;1971.20;;;;;;5027907;28;20056;-59
2021/04/02 01:10:45;;;;;;;6.18;2.72;;;410.10;1971.20;;;;;;5014929;28;20349;-61
2021/04/02 01:13:16;;;;;;;6.13;2.55;;;410.10;1945.60;;;;;;5014847;28;20108;-61
2021/04/02 01:16:11;;;;;;;5.78;2.70;;;410.10;1945.60;;;;;;5029854;28;20030;-59
2021/04/02 01:18:45;;;;;;;6.72;2.60;;;410.20;1945.60;;;;;;5014825;28;20053;-59
2021/04/02 01:21:38;;;;;;;4.32;2.70;;;410.20;1945.60;;;;;;5022163;28;20534;-61
2021/04/02 01:24:10;;;;;;;6.05;2.75;;;410.20;1945.60;;;;;;5031710;28;20041;-58
2021/04/02 01:26:39;;;;;;;9.38;3.40;;;410.30;1920.00;;;;;;5032151;28;20454;-60
2021/04/02 01:29:24;;;;;;;4.55;3.00;;;410.20;1971.20;;;;;;5031992;28;20049;-59
2021/04/02 01:31:56;;;;;;;6.72;3.30;;;410.20;2022.40;;;;;;5031992;28;20057;-63
2021/04/02 01:34:29;;;;;;;7.20;3.55;;;410.30;2073.60;;;;;;5031987;28;20384;-60
2021/04/02 01:37:00;;;;;;;5.40;3.20;;;410.30;2073.60;;;;;;5032025;28;20495;-63
2021/04/02 01:39:26;;;;;;;5.05;3.20;;;410.30;1996.80;;;;;;5031750;28;20060;-59
2021/04/02 01:41:55;;;;;;;6.35;3.28;;;410.20;1996.80;;;;;;5031793;28;20438;-59
2021/04/02 01:44:22;;;;;;;6.30;3.25;;;410.10;2022.40;;;;;;5031956;28;20487;-59
2021/04/02 01:46:50;;;;;;;5.35;3.50;;;410.10;2048.00;;;;;;5031719;28;20082;-59
2021/04/02 01:49:17;;;;;;;6.82;4.10;;;410.10;2124.80;;;;;;5031663;28;20048;-58
2021/04/02 01:51:44;;;;;;;6.18;3.60;;;410.10;2073.60;;;;;;5031985;28;20037;-59
2021/04/02 01:54:10;;;;;;;9.07;4.43;;;410.10;2048.00;;;;;;5031763;28;20107;-64
2021/04/02 01:56:37;;;;;;;7.13;5.20;;;410.10;2073.60;;;;;;5031670;28;20494;-62
2021/04/02 01:59:04;;;;;;;7.95;5.20;;;410.10;2073.60;;;;;;5031874;28;20116;-61
2021/04/02 02:01:35;;;;;;;8.77;5.47;;;410.20;2073.60;;;;;;5019148;28;20160;-60
2021/04/02 02:04:03;;;;;;;8.88;4.90;;;410.10;2073.60;;;;;;5013948;28;20038;-59
2021/04/02 02:06:29;;;;;;;8.70;4.00;;;410.10;2048.00;;;;;;5013386;28;20060;-59
2021/04/02 02:08:57;;;;;;;8.30;4.25;;;410.10;2022.40;;;;;;5014436;28;20096;-60
2021/04/02 02:11:24;;;;;;;6.90;4.18;;;409.90;2073.60;;;;;;5014036;28;20046;-59
2021/04/02 02:13:53;;;;;;;7.47;4.25;;;409.70;2124.80;;;;;;5014201;28;20018;-58
2021/04/02 02:16:22;;;;;;;7.38;4.18;;;409.60;2150.40;;;;;;5014596;28;20076;-58
2021/04/02 02:18:55;;;;;;;6.55;4.03;;;384.90;2099.20;;;;;;5033697;28;20028;-64
2021/04/02 02:21:22;;;;;;;7.25;4.30;;;384.90;2099.20;;;;;;5033767;28;20029;-58
2021/04/02 02:23:49;;;;;;;6.18;4.15;;;384.90;2099.20;;;;;;5023323;28;20433;-60
2021/04/02 02:26:15;;;;;;;7.32;4.60;;;384.90;2099.20;;;;;;5031974;28;20660;-62
2021/04/02 02:28:41;;;;;;;9.32;4.80;;;384.90;2124.80;;;;;;5014621;28;20041;-64
2021/04/02 02:31:07;;;;;;;8.55;5.05;;;384.90;2124.80;;;;;;5013990;28;20037;-58
2021/04/02 02:33:33;;;;;;;9.90;5.45;;;384.90;2073.60;;;;;;5013691;28;20519;-59
2021/04/02 02:36:02;;;;;;;10.48;6.20;;;384.90;2150.40;;;;;;5013596;28;20684;-58
2021/04/02 02:38:29;;;;;;;9.43;5.72;;;384.80;2176.00;;;;;;5013965;28;20510;-59
2021/04/02 02:40:55;;;;;;;9.50;5.85;;;384.70;2124.80;;;;;;5013777;28;20132;-58
2021/04/02 02:43:21;;;;;;;10.05;6.05;;;384.80;2124.80;;;;;;5013560;28;20034;-60
2021/04/02 02:45:47;;;;;;;9.13;6.25;;;384.60;2124.80;;;;;;5013613;28;20029;-57
2021/04/02 02:48:14;;;;;;;8.27;5.70;;;384.60;2099.20;;;;;;5013525;28;20109;-57
2021/04/02 02:50:49;;;;;;;10.55;5.15;;;384.60;2150.40;;;;;;5013643;28;20088;-59
2021/04/02 02:53:18;;;;;;;8.20;4.60;;;384.60;2124.80;;;;;;5023597;28;20030;-59
2021/04/02 02:55:45;;;;;;;6.65;4.40;;;384.60;2099.20;;;;;;5036201;28;20029;-57
2021/04/02 02:58:15;;;;;;;7.22;4.00;;;384.60;2124.80;;;;;;5035819;28;20041;-60
2021/04/02 03:00:44;;;;;;;6.57;4.00;;;384.60;2099.20;;;;;;5035813;28;20022;-61
2021/04/02 03:03:15;;;;;;;6.85;4.18;;;384.60;2099.20;;;;;;5035932;28;20037;-59
2021/04/02 03:05:45;;;;;;;6.07;4.15;;;384.50;2124.80;;;;;;5033669;28;20439;-60
2021/04/02 03:08:15;;;;;;;7.18;3.97;;;384.50;2124.80;;;;;;5035921;28;20029;-57
2021/04/02 03:10:41;;;;;;;6.47;4.03;;;384.40;2150.40;;;;;;5033437;28;20029;-67
2021/04/02 03:13:07;;;;;;;7.38;4.10;;;384.40;2150.40;;;;;;5035740;28;20045;-58
2021/04/02 03:15:35;;;;;;;8.63;4.05;;;384.30;2124.80;;;;;;5035379;28;20112;-58
2021/04/02 03:18:05;;;;;;;5.97;3.90;;;384.30;2150.40;;;;;;5033097;28;20021;-59
2021/04/02 03:20:36;;;;;;;6.10;4.28;;;384.20;2150.40;;;;;;5035379;28;20041;-58
2021/04/02 03:23:05;;;;;;;8.90;4.80;;;384.20;2176.00;;;;;;5035212;28;20029;-57
2021/04/02 03:25:33;;;;;;;9.00;5.60;;;384.20;2150.40;;;;;;5035375;28;20584;-57
2021/04/02 03:28:00;;;;;;;8.13;5.25;;;384.20;2227.20;;;;;;5032702;28;20017;-64
2021/04/02 03:30:27;;;;;;;7.95;4.90;;;384.20;2227.20;;;;;;5034841;28;20049;-58
2021/04/02 03:33:11;;;;;;;9.20;5.30;;;384.20;2227.20;;;;;;5035447;28;20047;-57
2021/04/02 03:35:37;;;;;;;8.77;5.40;;;384.20;2201.60;;;;;;5035006;28;20032;-59
2021/04/02 03:38:05;;;;;;;9.57;5.38;;;384.00;2176.00;;;;;;5035189;28;20017;-59
2021/04/02 03:40:32;;;;;;;10.13;6.10;;;384.20;2176.00;;;;;;5034934;28;20049;-58
2021/04/02 03:43:00;;;;;;;8.15;5.60;;;384.20;2176.00;;;;;;5034953;28;20025;-58
2021/04/02 03:45:28;;;;;;;7.88;5.40;;;384.20;2150.40;;;;;;5034983;28;20079;-59
2021/04/02 03:47:55;;;;;;;9.75;5.65;;;384.20;2252.80;;;;;;5034825;28;20049;-58
2021/04/02 03:50:25;;;;;;;13.18;6.40;;;384.20;2227.20;;;;;;5034789;28;20379;-66
2021/04/02 03:53:14;;;;;;;9.70;5.53;;;384.10;2201.60;;;;;;5034858;28;20494;-69
2021/04/02 03:55:44;;;;;;;8.32;4.50;;;384.10;2176.00;;;;;;5032153;28;20041;-60
2021/04/02 03:58:13;;;;;;;9.07;4.35;;;384.00;2150.40;;;;;;5034734;28;20025;-67
2021/04/02 04:01:11;;;;;;;7.15;4.07;;;384.00;2150.40;;;;;;5032172;28;20072;-62
2021/04/02 04:03:39;;;;;;;6.97;4.28;;;384.00;2176.00;;;;;;5034424;28;20053;-66
2021/04/02 04:06:07;;;;;;;6.82;4.43;;;384.00;2176.00;;;;;;5033488;28;20020;-58
2021/04/02 04:08:34;;;;;;;5.85;4.38;;;384.00;2150.40;;;;;;5035023;28;20041;-64
2021/04/02 04:11:02;;;;;;;8.10;5.30;;;384.00;2150.40;;;;;;5032419;28;20014;-68
2021/04/02 04:13:30;;;;;;;8.27;5.63;;;359.30;2150.40;;;;;;5034616;28;20083;-59
2021/04/02 04:15:57;;;;;;;8.85;6.32;;;359.30;2176.00;;;;;;5034383;28;20386;-58
2021/04/02 04:18:24;;;;;;;12.65;6.93;;;359.30;2176.00;;;;;;5034465;28;20079;-59
2021/04/02 04:20:54;;;;;;;11.68;7.13;;;359.20;2201.60;;;;;;5034230;28;20475;-57
2021/04/02 04:23:21;;;;;;;8.77;6.65;;;359.30;2176.00;;;;;;5032019;28;20075;-57
2021/04/02 04:25:52;;;;;;;10.35;6.20;;;359.20;2176.00;;;;;;5034212;28;20013;-57
2021/04/02 04:28:20;;;;;;;9.55;6.50;;;359.10;2176.00;;;;;;5034036;28;20084;-62
2021/04/02 04:30:48;;;;;;;8.18;6.53;;;359.10;2201.60;;;;;;5034246;28;20083;-58
2021/04/02 04:33:15;;;;;;;10.07;6.20;;;359.00;2201.60;;;;;;5034280;28;20025;-57
2021/04/02 04:35:40;;;;;;;8.48;5.90;;;359.00;2201.60;;;;;;5031383;28;20045;-58
2021/04/02 04:38:07;;;;;;;7.35;5.68;;;359.00;2201.60;;;;;;5034437;28;20045;-62
2021/04/02 04:40:36;;;;;;;8.98;5.95;;;359.00;2227.20;;;;;;5034003;28;20120;-58
2021/04/02 04:43:05;;;;;;;10.13;6.22;;;359.00;2227.20;;;;;;5030393;28;20570;-57
2021/04/02 04:45:32;;;;;;;10.55;6.35;;;359.00;2201.60;;;;;;5032273;28;20483;-58
2021/04/02 04:47:59;;;;;;;11.98;7.10;;;359.00;2201.60;;;;;;5031213;28;20467;-58
2021/04/02 04:50:25;;;;;;;9.80;6.38;;;359.10;2201.60;;;;;;5031426;28;20489;-58
2021/04/02 04:52:52;;;;;;;10.85;7.15;;;359.10;2201.60;;;;;;5031213;28;20033;-58
2021/04/02 04:55:20;;;;;;;11.95;7.63;;;359.10;2176.00;;;;;;5031576;28;20025;-62
2021/04/02 04:57:49;;;;;;;10.30;6.88;;;359.10;2201.60;;;;;;5033340;28;20040;-61
2021/04/02 05:00:17;;;;;;;11.52;7.07;;;359.10;2201.60;;;;;;5033358;28;20025;-59
2021/04/02 05:02:45;;;;;;;9.43;7.30;;;359.10;2201.60;;;;;;5031764;28;20094;-58
2021/04/02 05:05:28;;;;;;;12.45;7.53;;;359.10;2176.00;;;;;;5031689;28;20033;-60
2021/04/02 05:07:56;;;;;;;12.25;6.80;;;359.20;2201.60;;;;;;5032036;28;20029;-60
2021/04/02 05:10:23;;;;;;;14.70;7.15;;;359.20;2176.00;;;;;;5032347;28;20025;-58
2021/04/02 05:12:50;;;;;;;11.75;7.00;;;359.20;2176.00;;;;;;5034206;28;20037;-59
2021/04/02 05:15:19;;;;;;;13.93;7.75;;;359.10;2176.00;;;;;;5034450;28;20041;-58
2021/04/02 05:17:46;;;;;;;16.30;9.57;;;359.10;2201.60;;;;;;5034522;28;20026;-58
2021/04/02 05:20:12;;;;;;;18.25;11.13;;;359.10;2176.00;;;;;;5034274;28;20375;-58
2021/04/02 05:22:38;;;;;;;18.30;11.15;;;359.10;2176.00;;;;;;5034259;28;20168;-58
2021/04/02 05:25:07;;;;;;;15.30;9.93;;;359.10;2150.40;;;;;;5034326;28;20432;-59
2021/04/02 05:27:33;;;;;;;15.07;9.88;;;359.20;2150.40;;;;;;5034478;28;20025;-64
2021/04/02 05:29:58;;;;;;;13.80;9.20;;;359.20;2150.40;;;;;;5034074;28;20115;-65
2021/04/02 05:32:25;;;;;;;14.23;10.45;;;359.20;2150.40;;;;;;5034026;28;20056;-62
2021/04/02 05:34:50;;;;;;;18.77;12.05;;;359.20;2176.00;;;;;;5034293;28;20071;-62
2021/04/02 05:37:16;;;;;;;18.48;11.55;;;359.20;2176.00;;;;;;5034036;28;20021;-60
2021/04/02 05:39:42;;;;;;;21.02;12.48;;;359.30;2150.40;;;;;;5033376;28;20029;-61
2021/04/02 05:42:12;;;;;;;18.25;12.10;;;359.30;2150.40;;;;;;5034183;28;20549;-59
2021/04/02 05:44:38;;;;;;;17.90;12.15;;;384.00;2150.40;;;;;;5034034;28;20120;-66
2021/04/02 05:47:06;;;;;;;17.83;12.30;;;384.00;2150.40;;;;;;5034149;28;20439;-65
2021/04/02 05:49:32;;;;;;;16.45;10.02;;;384.10;2150.40;;;;;;5033545;28;20041;-58
2021/04/02 05:51:59;;;;;;;17.42;10.27;;;384.20;2124.80;;;;;;5033774;28;20022;-66
2021/04/02 05:54:35;;;;;;;18.05;10.13;;;384.20;2124.80;;;;;;5034068;28;20030;-66
2021/04/02 05:57:01;;;;;;;16.90;9.77;;;384.30;2099.20;;;;;;5033816;28;20026;-65
2021/04/02 05:59:27;;;;;;;16.75;9.93;;;384.50;2073.60;;;;;;5033572;28;20053;-66
2021/04/02 06:01:54;;;;;;;13.90;9.38;;;384.90;2022.40;;;;;;5034024;28;20049;-60
2021/04/02 06:04:20;;;;;;;14.05;9.85;;;409.70;2022.40;;;;;;5032706;28;20045;-63
2021/04/02 06:06:47;;;;;;;12.40;8.48;;;410.00;1996.80;;;;;;5033630;28;20383;-59
2021/04/02 06:09:14;;;;;;;13.98;7.80;;;410.40;1945.60;;;;;;5033842;28;20030;-69
2021/04/02 06:11:40;;;;;;;12.80;8.10;;;410.50;1868.80;;;;;;5033658;28;20025;-64
2021/04/02 06:14:07;;;;;;;13.63;8.75;;;435.30;1843.20;;;;;;5033883;28;20467;-60
2021/04/02 06:16:33;;;;;;;14.48;9.02;;;435.50;1792.00;;;;;;5033615;28;20033;-61
2021/04/02 06:19:18;;;;;;;13.68;7.72;;;435.70;1766.40;;;;;;5033650;28;20018;-61
2021/04/02 06:21:48;;;;;;;14.52;7.57;;;435.80;1740.80;;;;;;5033678;28;20026;-60
2021/04/02 06:24:16;;;;;;;12.00;8.20;;;436.00;1715.20;;;;;;5033445;28;20042;-59
2021/04/02 06:27:02;;;;;;;11.68;7.60;;;460.80;1766.40;;;;;;5032112;28;20021;-60
2021/04/02 06:29:30;;;;;;;11.85;7.70;;;460.90;1740.80;;;;;;5035762;28;20057;-66
2021/04/02 06:31:57;;;;;;;13.43;8.02;;;461.00;1715.20;;;;;;5037067;28;20028;-60
2021/04/02 06:34:27;;;;;;;16.60;10.23;;;461.00;1689.60;;;;;;5037553;28;20071;-63
2021/04/02 06:37:02;;;;;;;18.48;11.27;;;461.10;1689.60;;;;;;5037282;28;20049;-59
2021/04/02 06:39:32;;;;;;;18.27;10.90;;;461.10;1664.00;;;;;;5037493;28;20105;-67
2021/04/02 06:42:01;;;;;;;27.35;16.88;;;461.20;1664.00;;;;;;5037638;28;20076;-62
2021/04/02 06:44:31;;;;;;;26.13;16.63;;;461.30;1638.40;;;;;;5037373;28;20040;-66
2021/04/02 06:46:58;;;;;;;20.13;12.68;;;461.60;1612.80;;;;;;5037318;28;20379;-71
2021/04/02 06:49:24;;;;;;;17.20;10.73;;;486.40;1561.60;;;;;;5037148;28;20030;-67
2021/04/02 06:51:52;;;;;;;17.45;10.00;;;486.60;1561.60;;;;;;5036820;28;20025;-63
2021/04/02 06:54:21;;;;;;;16.83;9.85;;;486.70;1536.00;;;;;;5037246;28;20041;-64
2021/04/02 06:57:02;;;;;;;16.92;10.05;;;486.80;1510.40;;;;;;5037310;28;20021;-65
2021/04/02 06:59:32;;;;;;;14.10;9.00;;;487.10;1459.20;;;;;;5037175;28;20045;-67
2021/04/02 07:02:00;;;;;;;12.90;8.57;;;487.20;1433.60;;;;;;5036240;28;20025;-61
2021/04/02 07:04:26;;;;;;;15.35;8.13;;;512.00;1408.00;;;;;;5036512;28;20044;-59
2021/04/02 07:06:53;;;;;;;12.20;8.52;;;512.30;1356.80;;;;;;5036290;28;20025;-59
2021/04/02 07:09:22;;;;;;;15.45;9.23;;;512.40;1356.80;;;;;;5037020;28;20090;-62
2021/04/02 07:11:59;;;;;;;15.20;8.88;;;512.30;1382.40;;;;;;5036279;28;20497;-60
2021/04/02 07:14:26;;;;;;;12.63;8.55;;;512.00;1382.40;;;;;;5036587;28;20545;-62
2021/04/02 07:16:54;;;;;;;13.75;9.25;;;512.10;1433.60;;;;;;5036639;28;20037;-64
2021/04/02 07:19:20;;;;;;;19.02;9.95;;;512.10;1382.40;;;;;;5036778;28;20052;-66
2021/04/02 07:21:49;;;;;;;18.52;10.65;;;487.30;1408.00;;;;;;5036481;28;20035;-61
2021/04/02 07:24:19;;;;;;;16.15;9.15;;;487.20;1408.00;;;;;;5036413;28;20490;-60
2021/04/02 07:26:50;;;;;;;21.23;10.30;;;487.20;1408.00;;;;;;5036636;28;20439;-59
2021/04/02 07:29:18;;;;;;;20.27;11.15;;;487.20;1433.60;;;;;;5036287;28;20052;-60
2021/04/02 07:31:45;;;;;;;16.45;9.88;;;487.30;1408.00;;;;;;5036608;28;20049;-60
2021/04/02 07:34:13;;;;;;;17.85;10.30;;;487.30;1433.60;;;;;;5036332;28;20029;-59
2021/04/02 07:36:40;;;;;;;16.27;10.52;;;512.00;1433.60;;;;;;5036313;28;20026;-60
2021/04/02 07:39:07;;;;;;;16.98;10.18;;;512.10;1382.40;;;;;;5036118;28;20033;-59
2021/04/02 07:41:50;;;;;;;17.50;10.30;;;512.40;1356.80;;;;;;5031939;28;20105;-68
2021/04/02 07:44:18;;;;;;;18.92;10.77;;;512.60;1382.40;;;;;;5022676;28;20037;-60
2021/04/02 07:47:09;;;;;;;18.75;10.65;;;512.80;1382.40;;;;;;5016023;28;20093;-60
2021/04/02 07:49:54;;;;;;;23.23;11.43;;;537.70;1382.40;;;;;;5014793;28;20037;-59
2021/04/02 07:52:40;;;;;;;25.23;12.43;;;537.90;1382.40;;;;;;5015980;28;20081;-65
2021/04/02 07:55:10;;;;;;;23.20;11.60;;;537.90;1356.80;;;;;;5028441;28;20038;-62
2021/04/02 07:58:00;;;;;;;18.27;11.73;;;537.90;1305.60;;;;;;5016161;28;21451;-58
2021/04/02 08:00:32;;;;;;;20.13;11.80;;;538.00;1331.20;;;;;;5032514;28;20034;-59
2021/04/02 08:03:15;;;;;;;21.00;11.23;;;538.10;1331.20;;;;;;5026797;28;20034;-62
2021/04/02 08:05:58;;;;;;;22.53;11.43;;;538.40;1280.00;;;;;;5034653;28;20716;-59
2021/04/02 08:08:25;;;;;;;17.67;12.05;;;563.40;1305.60;;;;;;5027876;28;20105;-61
2021/04/02 08:11:26;;;;;;;18.90;10.52;;;563.50;1280.00;;;;;;5015620;28;20065;-58
2021/04/02 08:13:58;;;;;;;15.38;10.05;;;563.70;1254.40;;;;;;5014706;28;20038;-58
2021/04/02 08:16:46;;;;;;;18.35;11.73;;;564.00;1228.80;;;;;;5015362;28;20054;-58
2021/04/02 08:19:16;;;;;;;18.02;10.52;;;588.80;1203.20;;;;;;5015284;28;20030;-60
2021/04/02 08:21:49;;;;;;;20.30;11.80;;;589.20;1177.60;;;;;;5022303;28;20026;-59
2021/04/02 08:24:16;;;;;;;18.80;10.48;;;589.60;1100.80;;;;;;5024901;28;20038;-59
2021/04/02 08:26:43;;;;;;;18.38;10.13;;;614.60;1049.60;;;;;;5022215;28;20363;-60
2021/04/02 08:29:12;;;;;;;16.23;9.93;;;614.80;998.40;;;;;;5033145;28;20133;-64
2021/04/02 08:31:44;;;;;;;20.40;11.30;;;615.20;998.40;;;;;;5034428;28;20156;-58
2021/04/02 08:34:13;;;;;;;15.45;9.48;;;640.20;947.20;;;;;;5027613;28;20033;-59
2021/04/02 08:36:39;;;;;;;17.40;9.07;;;640.00;896.00;;;;;;5034727;28;20451;-59
2021/04/02 08:39:06;;;;;;;16.27;9.93;;;640.10;947.20;;;;;;5019671;28;20026;-57
2021/04/02 08:41:32;;;;;;;66.53;43.35;;;640.10;896.00;;;;;;5026267;28;20037;-59
2021/04/02 08:44:01;;;;;;;27.13;16.92;;;640.30;870.40;;;;;;5017020;28;20423;-64
2021/04/02 08:46:34;;;;;;;39.33;25.23;;;640.60;896.00;;;;;;5023670;28;20371;-60
2021/04/02 08:49:00;;;;;;;16.23;9.00;;;665.60;870.40;;;;;;5014986;28;20033;-60
2021/04/02 08:51:26;;;;;;;21.10;9.90;;;640.80;844.80;;;;;;5013709;28;20495;-63
2021/04/02 08:53:52;;;;;;;17.00;9.48;;;640.50;870.40;;;;;;5014493;28;20068;-63
2021/04/02 08:56:22;;;;;;;16.67;8.90;;;640.60;819.20;;;;;;5014466;28;20471;-60
2021/04/02 08:58:49;;;;;;;16.98;8.70;;;640.60;844.80;;;;;;5027856;28;20040;-58
2021/04/02 09:01:20;;;;;;;17.50;8.90;;;640.60;844.80;;;;;;5028100;28;20112;-59
2021/04/02 09:03:46;;;;;;;17.75;9.68;;;640.50;844.80;;;;;;5033518;28;20426;-59
2021/04/02 09:06:13;;;;;;;17.08;9.38;;;665.80;844.80;;;;;;5035350;28;20021;-60
2021/04/02 09:08:39;;;;;;;16.52;9.55;;;665.90;844.80;;;;;;5032692;28;20018;-60
2021/04/02 09:11:10;;;;;;;18.80;10.50;;;666.10;819.20;;;;;;5029723;28;20034;-60
2021/04/02 09:13:41;;;;;;;17.38;9.60;;;691.60;768.00;;;;;;5032831;28;20692;-60
2021/04/02 09:16:15;;;;;;;14.00;9.27;;;716.90;793.60;;;;;;5028137;28;20029;-60
2021/04/02 09:18:50;;;;;;;15.63;9.80;;;717.10;793.60;;;;;;5030582;28;20471;-59
2021/04/02 09:21:17;;;;;;;15.63;9.23;;;742.40;768.00;;;;;;5029290;28;20100;-62
2021/04/02 09:23:46;;;;;;;13.70;8.68;;;742.50;768.00;;;;;;5029645;28;20057;-59
2021/04/02 09:26:12;;;;;;;15.98;9.05;;;742.90;716.80;;;;;;5032657;28;20017;-60
2021/04/02 09:28:38;;;;;;;16.02;8.95;;;742.80;716.80;;;;;;5032398;28;20067;-59
2021/04/02 09:31:20;;;;;;;17.55;8.75;;;742.70;716.80;;;;;;5030016;28;20040;-60
2021/04/02 09:33:52;;;;;;;18.05;8.73;;;742.50;716.80;;;;;;5029762;28;20060;-59
2021/04/02 09:36:20;;;;;;;17.30;8.45;;;717.60;691.20;;;;;;5032385;28;20025;-61
2021/04/02 09:38:46;;;;;;;13.77;8.60;;;717.60;716.80;;;;;;5032419;28;20026;-60
2021/04/02 09:41:13;;;;;;;17.60;8.90;;;717.00;742.40;;;;;;5028318;28;20181;-60
2021/04/02 09:44:09;;;;;;;14.98;9.00;;;717.10;742.40;;;;;;5031701;28;20409;-60
2021/04/02 09:46:40;;;;;;;15.52;8.55;;;716.80;768.00;;;;;;5031432;28;20025;-60
2021/04/02 09:49:15;;;;;;;16.65;8.80;;;691.80;768.00;;;;;;5029761;28;20113;-60
2021/04/02 09:51:42;;;;;;;;;;;691.70;742.40;;;;;;5031590;28;20029;-60
2021/04/02 09:54:09;;;;;;;17.85;8.80;;;691.30;768.00;;;;;;5032063;28;20493;-60
2021/04/02 09:56:35;;;;;;;17.17;9.07;;;691.20;768.00;;;;;;5031947;28;20048;-59
2021/04/02 09:59:01;;;;;;;17.25;8.90;;;666.50;768.00;;;;;;5031755;28;20021;-60
2021/04/02 10:01:27;;;;;;;17.00;8.95;;;666.40;768.00;;;;;;5031913;28;20494;-60
2021/04/02 10:03:53;;;;;;;15.23;8.77;;;691.20;768.00;;;;;;5029304;28;20037;-60
2021/04/02 10:06:19;;;;;;;17.23;8.45;;;691.20;768.00;;;;;;5031691;28;20033;-59
2021/04/02 10:08:45;;;;;;;18.00;10.70;;;666.10;793.60;;;;;;5031936;28;20018;-60
2021/04/02 10:11:11;;;;;;;21.55;12.65;;;665.80;819.20;;;;;;5031779;28;20009;-60
2021/04/02 10:13:39;;;;;;;17.45;9.48;;;665.60;844.80;;;;;;5028819;28;20441;-62
2021/04/02 10:16:06;;;;;;;14.02;8.90;;;640.70;844.80;;;;;;5029288;28;20152;-61
2021/04/02 10:18:32;;;;;;;16.80;8.48;;;640.00;870.40;;;;;;5031398;28;20021;-60
2021/04/02 10:20:58;;;;;;;17.23;9.55;;;615.10;896.00;;;;;;5028179;28;20017;-61
2021/04/02 10:23:24;;;;;;;17.77;9.27;;;614.70;921.60;;;;;;5030209;28;20061;-60
2021/04/02 10:25:50;;;;;;;14.98;9.52;;;614.60;921.60;;;;;;5031190;28;20743;-59
2021/04/02 10:28:16;;;;;;;15.13;8.73;;;614.50;947.20;;;;;;5029602;28;20026;-61
2021/04/02 10:30:42;;;;;;;16.85;9.32;;;589.70;972.80;;;;;;5031297;28;20030;-61
2021/04/02 10:33:08;;;;;;;17.45;9.52;;;589.60;972.80;;;;;;5031688;28;20083;-59
2021/04/02 10:35:36;;;;;;;17.25;9.88;;;589.60;972.80;;;;;;5031400;28;20061;-62
2021/04/02 10:38:03;;;;;;;23.60;10.70;;;589.50;972.80;;;;;;5031810;28;20032;-60
2021/04/02 10:40:28;;;;;;;21.08;10.20;;;589.30;972.80;;;;;;5032368;28;20068;-61
2021/04/02 10:42:54;;;;;;;20.75;10.23;;;589.20;998.40;;;;;;5026195;28;20110;-60
2021/04/02 10:45:20;;;;;;;19.42;10.10;;;589.10;998.40;;;;;;5031524;28;20045;-60
2021/04/02 10:47:46;;;;;;;20.52;10.75;;;589.00;1049.60;;;;;;5031453;28;20021;-60
2021/04/02 10:50:12;;;;;;;19.73;10.15;;;589.00;1024.00;;;;;;5031659;28;20506;-59
2021/04/02 10:52:38;;;;;;;22.15;11.10;;;589.20;1049.60;;;;;;5031417;28;20026;-61
2021/04/02 10:55:05;;;;;;;29.15;16.73;;;589.30;1024.00;;;;;;5031580;28;20044;-60
2021/04/02 10:57:31;;;;;;;71.82;48.85;;;589.50;998.40;;;;;;5031363;28;20029;-61
2021/04/02 10:59:56;;;;;;;69.10;45.45;;;589.70;998.40;;;;;;5031118;28;20027;-59
2021/04/02 11:02:22;;;;;;;38.10;22.88;;;614.80;972.80;;;;;;5031425;28;20502;-59
2021/04/02 11:04:48;;;;;;;27.33;15.48;;;614.90;947.20;;;;;;5030082;28;20033;-59
2021/04/02 11:07:13;;;;;;;18.77;10.60;;;614.90;921.60;;;;;;5031621;28;20025;-60
2021/04/02 11:09:39;;;;;;;23.33;11.15;;;615.00;947.20;;;;;;5031865;28;20013;-60
2021/04/02 11:12:06;;;;;;;20.88;13.02;;;615.30;921.60;;;;;;5031474;28;20475;-59
2021/04/02 11:14:31;;;;;;;26.63;13.18;;;615.20;921.60;;;;;;5031651;28;20490;-60
2021/04/02 11:16:57;;;;;;;20.27;10.57;;;615.00;870.40;;;;;;5034834;28;20022;-60
2021/04/02 11:19:23;;;;;;;28.33;11.68;;;615.30;844.80;;;;;;5034935;28;20032;-60
2021/04/02 11:21:50;;;;;;;28.00;13.93;;;615.20;844.80;;;;;;5032205;28;20029;-61
2021/04/02 11:24:16;;;;;;;26.08;14.52;;;640.00;844.80;;;;;;5033194;28;20056;-60
2021/04/02 11:26:42;;;;;;;27.52;16.73;;;640.50;870.40;;;;;;5034693;28;20467;-61
2021/04/02 11:29:08;;;;;;;31.33;17.73;;;691.80;768.00;;;;;;5034465;28;20038;-57
2021/04/02 11:31:33;;;;;;;23.40;14.02;;;717.70;716.80;;;;;;5031966;28;20032;-61
2021/04/02 11:33:59;;;;;;;22.67;14.25;;;793.70;640.00;;;;;;5034847;28;20030;-58
2021/04/02 11:36:25;;;;;;;24.02;14.13;;;820.00;537.60;;;;;;5034438;28;20029;-58
2021/04/02 11:38:51;;;;;;;14.63;8.85;;;870.40;486.40;;;;;;5034143;28;20029;-61
2021/04/02 11:41:17;;;;;;;17.25;9.70;;;896.60;409.60;;;;;;5034122;28;20045;-62
2021/04/02 11:43:44;;;;;;;16.55;9.05;;;922.50;384.00;;;;;;5032514;28;20037;-60
2021/04/02 11:46:10;;;;;;;14.23;9.35;;;972.80;384.00;;;;;;5034483;28;20049;-60
2021/04/02 11:48:35;;;;;;;14.52;10.57;;;998.60;358.40;;;;;;5034372;28;20517;-60
2021/04/02 11:51:01;;;;;;;13.05;8.85;;;1024.00;332.80;;;;;;5034436;28;20030;-59
2021/04/02 11:53:27;;;;;;;15.10;9.02;;;1024.60;332.80;;;;;;5033775;28;20028;-59
2021/04/02 11:55:53;;;;;;;12.75;8.05;;;1049.60;358.40;;;;;;5030755;28;20402;-59
2021/04/02 11:58:19;;;;;;;16.02;9.05;;;1024.80;332.80;;;;;;5033431;28;20017;-60
2021/04/02 12:00:45;;;;;;;13.52;8.20;;;1024.50;332.80;;;;;;5032686;28;20025;-60
2021/04/02 12:03:10;;;;;;;13.25;8.70;;;1049.80;358.40;;;;;;5033844;28;20430;-60
2021/04/02 12:05:36;;;;;;;12.63;8.00;;;1050.30;358.40;;;;;;5034367;28;20403;-61
2021/04/02 12:08:02;;;;;;;10.43;7.63;;;1050.00;358.40;;;;;;5035092;28;20409;-59
2021/04/02 12:10:28;;;;;;;10.80;8.10;;;1050.10;358.40;;;;;;5035127;28;20029;-58
2021/04/02 12:12:54;;;;;;;11.05;7.50;;;1075.80;358.40;;;;;;5034810;28;20017;-61
2021/04/02 12:15:20;;;;;;;10.73;7.70;;;1075.30;358.40;;;;;;5033576;28;20033;-60
2021/04/02 12:17:46;;;;;;;10.98;7.32;;;1100.90;384.00;;;;;;5030040;28;20030;-58
2021/04/02 12:20:15;;;;;;;10.20;7.68;;;1075.80;358.40;;;;;;5032847;28;20025;-59